Time;durP1;ratioP1;P1;durP2;ratioP2;P2;SDS_P1;SDS_P2;PMS_P1;PMS_P2;Temp;Humidity;BMP_temperature;BMP_pressure;BME280_temperature;BME280_humidity;BME280_pressure;Samples;Min_cycle;Max_cycle;Signal;HPM_P1;HPM_P2
2023/01/24 00:00:30;;;;;;;10.57;6.65;;;;;;;;;;4948803;28;92847;-78
2023/01/24 00:02:56;;;;;;;11.82;6.80;;;;;;;;;;4927069;28;94734;-78
2023/01/24 00:05:23;;;;;;;11.85;6.90;;;;;;;;;;4938198;28;92269;-78
2023/01/24 00:07:49;;;;;;;11.80;7.03;;;;;;;;;;4952436;28;93411;-78
2023/01/24 00:10:16;;;;;;;18.15;6.55;;;;;;;;;;4949773;28;93158;-80
2023/01/24 00:12:42;;;;;;;13.82;5.97;;;;;;;;;;4944743;28;95143;-77
2023/01/24 00:15:09;;;;;;;12.63;5.82;;;;;;;;;;4948954;28;95281;-77
2023/01/24 00:17:36;;;;;;;11.38;5.57;;;;;;;;;;4948618;28;93588;-77
2023/01/24 00:20:05;;;;;;;13.27;5.70;;;;;;;;;;4944285;28;92954;-77
2023/01/24 00:22:31;;;;;;;11.15;5.18;;;;;;;;;;4932505;28;93055;-77
2023/01/24 00:24:58;;;;;;;10.75;4.80;;;;;;;;;;4930304;28;93109;-77
2023/01/24 00:27:24;;;;;;;11.00;4.80;;;;;;;;;;4929853;28;92833;-78
2023/01/24 00:29:51;;;;;;;11.85;5.03;;;;;;;;;;4930992;28;96436;-78
2023/01/24 00:32:17;;;;;;;12.43;5.00;;;;;;;;;;4930079;28;92363;-78
2023/01/24 00:34:44;;;;;;;11.40;4.50;;;;;;;;;;4927651;28;93399;-78
2023/01/24 00:37:10;;;;;;;11.55;4.38;;;;;;;;;;4909140;28;95771;-78
2023/01/24 00:39:37;;;;;;;10.75;3.92;;;;;;;;;;4909888;28;93285;-78
2023/01/24 00:42:03;;;;;;;11.05;3.83;;;;;;;;;;4929887;28;92771;-78
2023/01/24 00:44:29;;;;;;;8.73;3.80;;;;;;;;;;4929458;28;93489;-78
2023/01/24 00:46:56;;;;;;;10.27;3.88;;;;;;;;;;4929489;28;92814;-78
2023/01/24 00:49:22;;;;;;;9.50;4.00;;;;;;;;;;4922917;28;92776;-78
2023/01/24 00:51:49;;;;;;;10.20;3.92;;;;;;;;;;4913079;28;93370;-78
2023/01/24 00:54:15;;;;;;;8.18;3.63;;;;;;;;;;4923617;28;92855;-78
2023/01/24 00:56:42;;;;;;;8.02;3.38;;;;;;;;;;4918806;28;93080;-78
2023/01/24 00:59:08;;;;;;;8.90;3.33;;;;;;;;;;4920274;28;92668;-78
2023/01/24 01:01:35;;;;;;;7.68;3.55;;;;;;;;;;4925689;28;95653;-77
2023/01/24 01:04:02;;;;;;;8.55;3.55;;;;;;;;;;4925517;28;94553;-78
2023/01/24 01:06:28;;;;;;;8.05;3.47;;;;;;;;;;4914960;28;92863;-78
2023/01/24 01:08:55;;;;;;;7.97;3.65;;;;;;;;;;4929533;28;96169;-78
2023/01/24 01:11:22;;;;;;;8.57;3.63;;;;;;;;;;4938783;28;95032;-78
2023/01/24 01:13:49;;;;;;;7.97;3.47;;;;;;;;;;4944536;28;94135;-78
2023/01/24 01:16:18;;;;;;;6.32;3.10;;;;;;;;;;4931453;28;96037;-78
2023/01/24 01:18:45;;;;;;;6.10;3.33;;;;;;;;;;4910286;28;92101;-78
2023/01/24 01:21:13;;;;;;;7.13;3.33;;;;;;;;;;4942254;28;92549;-78
2023/01/24 01:23:40;;;;;;;7.20;3.33;;;;;;;;;;4946480;28;92684;-78
2023/01/24 01:26:08;;;;;;;6.22;3.10;;;;;;;;;;4947830;28;95174;-78
2023/01/24 01:28:35;;;;;;;5.80;3.10;;;;;;;;;;4949099;28;98052;-79
2023/01/24 01:31:02;;;;;;;8.85;3.25;;;;;;;;;;4948556;28;93235;-79
2023/01/24 01:33:29;;;;;;;;;;;;;;;;;;4950428;28;92678;-79
2023/01/24 01:35:55;;;;;;;7.43;3.50;;;;;;;;;;4953845;28;92514;-78
2023/01/24 01:38:24;;;;;;;8.43;3.70;;;;;;;;;;4952436;28;92496;-79
2023/01/24 01:40:51;;;;;;;7.43;3.72;;;;;;;;;;4961237;28;92564;-78
2023/01/24 01:43:19;;;;;;;6.93;3.40;;;;;;;;;;4964231;28;92653;-79
2023/01/24 01:45:50;;;;;;;6.55;3.50;;;;;;;;;;4960594;28;92422;-78
2023/01/24 01:48:25;;;;;;;7.13;3.55;;;;;;;;;;4948029;28;93072;-79
2023/01/24 01:51:15;;;;;;;8.18;3.63;;;;;;;;;;4931825;28;97183;-78
2023/01/24 01:53:45;;;;;;;9.07;3.83;;;;;;;;;;4921440;28;93210;-78
2023/01/24 01:56:16;;;;;;;8.45;3.90;;;;;;;;;;4953377;28;93191;-78
2023/01/24 01:58:43;;;;;;;6.78;3.60;;;;;;;;;;4954424;28;95637;-78
2023/01/24 02:01:10;;;;;;;7.60;3.90;;;;;;;;;;4952276;28;92899;-77
2023/01/24 02:03:42;;;;;;;7.53;3.65;;;;;;;;;;4942938;28;93035;-78
2023/01/24 02:06:19;;;;;;;8.35;4.03;;;;;;;;;;4932245;28;92857;-78
2023/01/24 02:08:46;;;;;;;6.78;3.80;;;;;;;;;;4947478;28;95151;-79
2023/01/24 02:16:44;;;;;;;9.13;3.83;;;;;;;;;;4944906;28;94974;-79
2023/01/24 02:19:16;;;;;;;7.03;3.65;;;;;;;;;;4939992;28;93759;-78
2023/01/24 02:21:43;;;;;;;8.65;4.10;;;;;;;;;;4929658;28;93136;-78
2023/01/24 02:24:18;;;;;;;7.72;3.67;;;;;;;;;;4926809;28;94295;-78
2023/01/24 02:26:44;;;;;;;7.32;3.88;;;;;;;;;;4926920;28;92750;-79
2023/01/24 02:29:12;;;;;;;7.20;3.72;;;;;;;;;;4926941;28;95364;-78
2023/01/24 02:31:53;;;;;;;8.27;4.03;;;;;;;;;;4926117;28;93284;-78
2023/01/24 02:34:20;;;;;;;6.30;3.40;;;;;;;;;;4926680;28;92123;-78
2023/01/24 02:36:49;;;;;;;6.75;3.58;;;;;;;;;;4936723;28;95025;-79
2023/01/24 02:39:18;;;;;;;6.80;3.70;;;;;;;;;;4941814;28;95115;-79
2023/01/24 02:41:44;;;;;;;8.63;4.05;;;;;;;;;;4946795;28;95164;-78
2023/01/24 02:44:15;;;;;;;6.28;3.55;;;;;;;;;;4945812;28;95630;-79
2023/01/24 02:46:44;;;;;;;7.63;4.00;;;;;;;;;;4947855;28;92437;-79
2023/01/24 02:49:11;;;;;;;7.25;3.60;;;;;;;;;;4946027;28;95702;-78
2023/01/24 02:54:23;;;;;;;7.50;3.83;;;;;;;;;;4942483;28;92562;-79
2023/01/24 02:59:34;;;;;;;6.85;3.60;;;;;;;;;;4945714;28;94599;-79
2023/01/24 03:02:01;;;;;;;7.90;3.92;;;;;;;;;;4946640;28;92462;-79
2023/01/24 03:04:27;;;;;;;7.32;3.85;;;;;;;;;;4948753;28;94805;-79
2023/01/24 03:06:54;;;;;;;8.13;4.35;;;;;;;;;;4933826;28;95688;-79
2023/01/24 03:09:33;;;;;;;8.07;4.28;;;;;;;;;;4945566;28;97899;-80
2023/01/24 03:34:29;;;;;;;8.27;4.22;;;;;;;;;;4944945;28;103166;-80
2023/01/24 03:36:56;;;;;;;9.05;4.07;;;;;;;;;;4943260;28;93139;-80
2023/01/24 03:42:08;;;;;;;7.97;4.30;;;;;;;;;;4952750;28;100046;-80
2023/01/24 03:44:35;;;;;;;8.85;4.60;;;;;;;;;;4950285;28;92687;-80
2023/01/24 03:47:01;;;;;;;7.35;4.10;;;;;;;;;;4938374;28;92943;-80
2023/01/24 03:52:27;;;;;;;7.80;4.10;;;;;;;;;;4945727;28;94338;-80
2023/01/24 03:54:57;;;;;;;8.25;4.20;;;;;;;;;;4936968;28;95590;-81
2023/01/24 03:57:24;;;;;;;12.07;4.53;;;;;;;;;;4948325;28;92920;-80
2023/01/24 03:59:51;;;;;;;10.00;4.22;;;;;;;;;;4946713;28;95401;-80
2023/01/24 04:02:18;;;;;;;12.85;4.28;;;;;;;;;;4948450;28;95494;-80
2023/01/24 04:07:30;;;;;;;9.20;4.03;;;;;;;;;;4942546;28;95167;-80
2023/01/24 04:10:00;;;;;;;8.98;4.05;;;;;;;;;;4948411;28;99641;-80
2023/01/24 04:12:32;;;;;;;8.27;4.07;;;;;;;;;;4948910;28;92967;-80
2023/01/24 04:14:59;;;;;;;8.50;3.58;;;;;;;;;;4951526;28;95732;-79
2023/01/24 04:17:27;;;;;;;9.27;4.20;;;;;;;;;;4949280;28;91844;-79
2023/01/24 04:19:54;;;;;;;9.75;4.13;;;;;;;;;;4948387;28;92951;-79
2023/01/24 04:22:21;;;;;;;8.52;4.25;;;;;;;;;;4947760;28;96510;-79
2023/01/24 04:24:50;;;;;;;8.75;4.30;;;;;;;;;;4946686;28;95457;-79
2023/01/24 04:27:17;;;;;;;7.95;4.18;;;;;;;;;;4944532;28;98397;-80
2023/01/24 04:29:54;;;;;;;10.50;4.85;;;;;;;;;;4928298;28;95673;-80
2023/01/24 04:32:21;;;;;;;9.85;4.63;;;;;;;;;;4928521;28;92789;-80
2023/01/24 04:34:55;;;;;;;11.32;4.45;;;;;;;;;;4918590;28;93894;-80
2023/01/24 04:37:37;;;;;;;8.90;4.82;;;;;;;;;;4945541;28;93346;-79
2023/01/24 04:40:04;;;;;;;8.82;4.30;;;;;;;;;;4948908;28;95267;-80
2023/01/24 04:42:31;;;;;;;8.88;4.55;;;;;;;;;;4948062;28;95541;-81
2023/01/24 04:44:57;;;;;;;8.95;4.57;;;;;;;;;;4932617;28;92826;-80
2023/01/24 04:47:24;;;;;;;8.43;4.43;;;;;;;;;;4948486;28;95588;-80
2023/01/24 04:49:50;;;;;;;8.73;4.50;;;;;;;;;;4941588;28;97942;-80
2023/01/24 04:52:18;;;;;;;;;;;;;;;;;;4926913;28;92961;-78
2023/01/24 04:54:54;;;;;;;10.25;4.97;;;;;;;;;;4938173;28;93691;-78
2023/01/24 04:57:21;;;;;;;10.57;4.97;;;;;;;;;;4950255;28;95645;-78
2023/01/24 04:59:48;;;;;;;9.93;4.78;;;;;;;;;;4947036;28;95231;-78
2023/01/24 05:02:15;;;;;;;10.85;4.63;;;;;;;;;;4947414;28;95595;-78
2023/01/24 05:04:43;;;;;;;10.25;5.43;;;;;;;;;;4947164;28;92944;-78
2023/01/24 05:07:12;;;;;;;11.90;4.93;;;;;;;;;;4945395;28;94239;-78
2023/01/24 05:09:41;;;;;;;9.13;4.68;;;;;;;;;;4946173;28;95930;-78
2023/01/24 05:12:10;;;;;;;9.55;4.72;;;;;;;;;;4947406;28;92957;-78
2023/01/24 05:14:37;;;;;;;9.52;5.57;;;;;;;;;;4945969;28;95032;-78
2023/01/24 05:17:03;;;;;;;9.07;4.95;;;;;;;;;;4947698;28;95309;-78
2023/01/24 05:19:32;;;;;;;9.88;5.00;;;;;;;;;;4952115;28;92791;-78
2023/01/24 05:21:59;;;;;;;9.65;5.20;;;;;;;;;;4948503;28;93159;-79
2023/01/24 05:24:30;;;;;;;9.38;4.80;;;;;;;;;;4947576;28;92443;-78
2023/01/24 05:26:56;;;;;;;9.65;5.28;;;;;;;;;;4945785;28;95797;-79
2023/01/24 05:29:25;;;;;;;10.25;5.63;;;;;;;;;;4927925;28;95418;-79
2023/01/24 05:31:53;;;;;;;9.75;5.20;;;;;;;;;;4927731;28;92384;-80
2023/01/24 05:34:20;;;;;;;10.02;5.00;;;;;;;;;;4921871;28;94776;-79
2023/01/24 05:36:47;;;;;;;9.70;5.00;;;;;;;;;;4923501;28;95343;-80
2023/01/24 05:39:14;;;;;;;9.55;5.45;;;;;;;;;;4926900;28;94878;-80
2023/01/24 05:41:42;;;;;;;9.60;5.22;;;;;;;;;;4930713;28;96099;-79
2023/01/24 05:44:10;;;;;;;10.00;5.55;;;;;;;;;;4928482;28;93312;-80
2023/01/24 05:46:39;;;;;;;9.30;5.13;;;;;;;;;;4927569;28;96855;-79
2023/01/24 05:49:18;;;;;;;;;;;;;;;;;;4928201;28;95476;-80
2023/01/24 05:51:46;;;;;;;10.10;4.75;;;;;;;;;;4902294;28;93547;-79
2023/01/24 05:54:17;;;;;;;9.55;5.47;;;;;;;;;;4927840;28;95522;-80
2023/01/24 05:56:53;;;;;;;10.13;5.38;;;;;;;;;;4927245;28;93373;-79
2023/01/24 05:59:20;;;;;;;10.50;5.63;;;;;;;;;;4927385;28;92812;-79
2023/01/24 06:01:46;;;;;;;10.60;5.63;;;;;;;;;;4927549;28;92834;-78
2023/01/24 06:04:12;;;;;;;11.30;5.75;;;;;;;;;;4929372;28;98133;-79
2023/01/24 06:06:39;;;;;;;16.02;5.90;;;;;;;;;;4921274;28;98175;-81
2023/01/24 06:09:07;;;;;;;14.95;5.78;;;;;;;;;;4929165;28;95108;-80
2023/01/24 06:11:33;;;;;;;14.13;5.55;;;;;;;;;;4928665;28;92668;-80
2023/01/24 06:14:14;;;;;;;11.40;5.60;;;;;;;;;;4927652;28;93031;-80
2023/01/24 06:16:42;;;;;;;12.18;5.28;;;;;;;;;;4926895;28;95332;-82
2023/01/24 06:19:12;;;;;;;10.98;5.35;;;;;;;;;;4927130;28;92514;-80
2023/01/24 06:21:44;;;;;;;10.70;5.70;;;;;;;;;;4943498;28;94244;-79
2023/01/24 06:24:13;;;;;;;12.80;5.75;;;;;;;;;;4950876;28;94981;-79
2023/01/24 06:26:49;;;;;;;11.60;5.90;;;;;;;;;;4940890;28;92672;-80
2023/01/24 06:29:16;;;;;;;9.60;5.38;;;;;;;;;;4927036;28;95487;-80
2023/01/24 06:32:15;;;;;;;10.60;5.63;;;;;;;;;;4928072;28;92593;-79
2023/01/24 06:34:54;;;;;;;9.63;5.25;;;;;;;;;;4902409;28;94054;-80
2023/01/24 06:37:36;;;;;;;10.63;5.65;;;;;;;;;;4931031;28;93046;-79
2023/01/24 06:40:09;;;;;;;10.77;5.20;;;;;;;;;;4947724;28;92844;-80
2023/01/24 06:42:36;;;;;;;10.35;5.45;;;;;;;;;;4948559;28;92621;-80
2023/01/24 06:45:03;;;;;;;10.35;5.35;;;;;;;;;;4948328;28;93266;-79
2023/01/24 06:47:29;;;;;;;9.93;4.95;;;;;;;;;;4951322;28;91846;-79
2023/01/24 06:49:56;;;;;;;10.23;5.70;;;;;;;;;;4940601;28;93325;-79
2023/01/24 06:52:23;;;;;;;12.85;6.57;;;;;;;;;;4931739;28;92631;-79
2023/01/24 06:54:50;;;;;;;11.32;5.60;;;;;;;;;;4925058;28;94909;-79
2023/01/24 06:57:16;;;;;;;10.30;5.63;;;;;;;;;;4927777;28;93351;-78
2023/01/24 06:59:43;;;;;;;10.25;5.72;;;;;;;;;;4927258;28;92464;-78
2023/01/24 07:02:10;;;;;;;10.98;6.03;;;;;;;;;;4928073;28;92775;-79
2023/01/24 07:04:36;;;;;;;11.82;6.25;;;;;;;;;;4927871;28;94180;-79
2023/01/24 07:07:05;;;;;;;11.73;5.95;;;;;;;;;;4917187;28;92469;-79
2023/01/24 07:09:32;;;;;;;10.68;5.95;;;;;;;;;;4931416;28;92869;-77
2023/01/24 07:11:58;;;;;;;11.40;6.05;;;;;;;;;;4928714;28;92358;-80
2023/01/24 07:14:25;;;;;;;11.88;6.22;;;;;;;;;;4917720;28;92898;-80
2023/01/24 07:16:52;;;;;;;11.32;6.07;;;;;;;;;;4927718;28;92841;-80
2023/01/24 07:19:21;;;;;;;11.77;6.30;;;;;;;;;;4926903;28;96012;-80
2023/01/24 07:21:48;;;;;;;12.07;6.15;;;;;;;;;;4925777;28;95226;-80
2023/01/24 07:24:15;;;;;;;;;;;;;;;;;;4928221;28;93149;-80
2023/01/24 07:26:42;;;;;;;12.93;6.50;;;;;;;;;;4929137;28;92557;-80
2023/01/24 07:29:09;;;;;;;11.77;6.32;;;;;;;;;;4923379;28;93322;-80
2023/01/24 07:31:35;;;;;;;12.27;6.20;;;;;;;;;;4930046;28;93027;-79
2023/01/24 07:34:02;;;;;;;12.63;6.25;;;;;;;;;;4923913;28;93390;-80
2023/01/24 07:36:28;;;;;;;11.65;6.35;;;;;;;;;;4917027;28;95370;-79
2023/01/24 07:38:55;;;;;;;11.88;6.30;;;;;;;;;;4926376;28;92777;-80
2023/01/24 07:41:22;;;;;;;11.85;6.82;;;;;;;;;;4927916;28;93964;-79
2023/01/24 07:43:52;;;;;;;11.48;6.10;;;;;;;;;;4922977;28;98446;-79
2023/01/24 07:46:19;;;;;;;11.65;6.30;;;;;;;;;;4927953;28;92974;-80
2023/01/24 07:48:45;;;;;;;11.13;5.80;;;;;;;;;;4926000;28;94466;-79
2023/01/24 07:51:12;;;;;;;10.88;5.90;;;;;;;;;;4916978;28;94296;-79
2023/01/24 07:53:38;;;;;;;10.85;6.22;;;;;;;;;;4919214;28;92591;-78
2023/01/24 07:56:05;;;;;;;10.77;5.72;;;;;;;;;;4911926;28;93665;-78
2023/01/24 07:58:35;;;;;;;16.35;6.03;;;;;;;;;;4928371;28;92869;-79
2023/01/24 08:01:02;;;;;;;12.77;6.32;;;;;;;;;;4934775;28;93356;-78
2023/01/24 08:03:28;;;;;;;12.70;6.72;;;;;;;;;;4922135;28;94999;-78
2023/01/24 08:05:55;;;;;;;14.82;5.97;;;;;;;;;;4916780;28;93060;-79
2023/01/24 08:08:22;;;;;;;12.20;6.28;;;;;;;;;;4926527;28;95448;-79
2023/01/24 08:10:48;;;;;;;12.65;5.90;;;;;;;;;;4927024;28;93163;-78
2023/01/24 08:13:14;;;;;;;15.30;6.32;;;;;;;;;;4927541;28;92666;-79
2023/01/24 08:15:41;;;;;;;15.55;5.88;;;;;;;;;;4928709;28;92943;-78
2023/01/24 08:18:07;;;;;;;11.65;4.97;;;;;;;;;;4930840;28;92907;-78
2023/01/24 08:20:34;;;;;;;12.15;5.20;;;;;;;;;;4930900;28;93187;-78
2023/01/24 08:23:00;;;;;;;11.90;5.38;;;;;;;;;;4931431;28;92951;-78
2023/01/24 08:25:28;;;;;;;10.27;5.20;;;;;;;;;;4927655;28;92567;-78
2023/01/24 08:27:54;;;;;;;10.95;4.60;;;;;;;;;;4923172;28;92926;-79
2023/01/24 08:30:21;;;;;;;10.15;5.07;;;;;;;;;;4928882;28;93040;-79
2023/01/24 08:32:48;;;;;;;11.65;4.82;;;;;;;;;;4927106;28;95319;-79
2023/01/24 08:35:14;;;;;;;11.90;4.53;;;;;;;;;;4923626;28;95224;-79
2023/01/24 08:37:40;;;;;;;11.65;4.20;;;;;;;;;;4910221;28;92515;-79
2023/01/24 08:40:07;;;;;;;8.93;4.75;;;;;;;;;;4923160;28;95858;-79
2023/01/24 08:42:35;;;;;;;8.80;4.05;;;;;;;;;;4938238;28;93043;-79
2023/01/24 08:45:01;;;;;;;9.63;4.28;;;;;;;;;;4927886;28;92564;-78
2023/01/24 08:47:28;;;;;;;9.65;4.63;;;;;;;;;;4936951;28;93283;-79
2023/01/24 08:49:54;;;;;;;8.60;4.25;;;;;;;;;;4940924;28;92430;-78
2023/01/24 08:52:21;;;;;;;7.88;3.88;;;;;;;;;;4937952;28;92511;-77
2023/01/24 08:54:47;;;;;;;10.15;4.25;;;;;;;;;;4938988;28;92471;-78
2023/01/24 08:57:14;;;;;;;9.40;4.18;;;;;;;;;;4942833;28;95872;-78
2023/01/24 08:59:40;;;;;;;9.60;3.97;;;;;;;;;;4934674;28;95509;-78
2023/01/24 09:02:08;;;;;;;8.07;3.80;;;;;;;;;;4934976;28;93060;-78
2023/01/24 09:04:35;;;;;;;7.30;3.80;;;;;;;;;;4924133;28;92967;-79
2023/01/24 09:07:01;;;;;;;6.65;3.60;;;;;;;;;;4932954;28;94166;-79
2023/01/24 09:09:28;;;;;;;8.02;3.90;;;;;;;;;;4925274;28;92686;-78
2023/01/24 09:11:54;;;;;;;7.78;3.83;;;;;;;;;;4913072;28;92762;-78
2023/01/24 09:14:21;;;;;;;8.80;4.25;;;;;;;;;;4932445;28;93341;-78
2023/01/24 09:16:47;;;;;;;7.35;3.85;;;;;;;;;;4942918;28;93368;-78
2023/01/24 09:19:14;;;;;;;7.82;3.80;;;;;;;;;;4947822;28;93292;-79
2023/01/24 09:21:40;;;;;;;6.57;3.50;;;;;;;;;;4931270;28;95621;-78
2023/01/24 09:24:07;;;;;;;7.30;3.50;;;;;;;;;;4936243;28;92970;-78
2023/01/24 09:26:33;;;;;;;7.15;3.88;;;;;;;;;;4937500;28;93739;-78
2023/01/24 09:29:00;;;;;;;7.53;3.78;;;;;;;;;;4945826;28;96477;-79
2023/01/24 09:31:26;;;;;;;7.18;3.90;;;;;;;;;;4940237;28;92792;-79
2023/01/24 09:33:53;;;;;;;8.27;3.60;;;;;;;;;;4946249;28;92817;-78
2023/01/24 09:36:25;;;;;;;7.45;3.92;;;;;;;;;;4945475;28;95307;-78
2023/01/24 09:38:52;;;;;;;7.05;3.80;;;;;;;;;;4948828;28;91941;-78
2023/01/24 09:41:31;;;;;;;7.97;3.55;;;;;;;;;;4951711;28;93069;-78
2023/01/24 09:44:08;;;;;;;6.70;3.60;;;;;;;;;;4945852;28;92496;-78
2023/01/24 09:46:46;;;;;;;6.53;3.50;;;;;;;;;;4944640;28;94911;-78
2023/01/24 09:49:25;;;;;;;7.35;3.67;;;;;;;;;;4944130;28;93530;-79
2023/01/24 09:51:53;;;;;;;6.38;3.30;;;;;;;;;;4947628;28;92873;-78
2023/01/24 09:54:27;;;;;;;6.72;3.22;;;;;;;;;;4948232;28;95556;-79
2023/01/24 09:56:55;;;;;;;6.53;3.55;;;;;;;;;;4937380;28;96026;-79
2023/01/24 09:59:30;;;;;;;6.75;3.38;;;;;;;;;;4949221;28;92986;-79
2023/01/24 10:01:57;;;;;;;7.97;3.85;;;;;;;;;;4938229;28;92977;-78
2023/01/24 10:04:26;;;;;;;7.97;3.55;;;;;;;;;;4950214;28;92794;-78
2023/01/24 10:06:59;;;;;;;7.00;3.47;;;;;;;;;;4947565;28;93136;-79
2023/01/24 10:09:31;;;;;;;7.28;3.58;;;;;;;;;;4944699;28;94591;-78
2023/01/24 10:12:07;;;;;;;7.15;3.47;;;;;;;;;;4958546;28;96054;-79
2023/01/24 10:14:41;;;;;;;7.32;3.30;;;;;;;;;;4948043;28;95231;-79
2023/01/24 10:17:08;;;;;;;6.72;3.70;;;;;;;;;;4945769;28;93929;-78
2023/01/24 10:19:51;;;;;;;7.15;3.53;;;;;;;;;;4947807;28;93212;-78
2023/01/24 10:22:29;;;;;;;7.10;3.40;;;;;;;;;;4946096;28;93120;-78
2023/01/24 10:24:59;;;;;;;6.93;3.53;;;;;;;;;;4945521;28;93226;-78
2023/01/24 10:27:28;;;;;;;8.55;3.63;;;;;;;;;;4946069;28;92917;-78
2023/01/24 10:29:57;;;;;;;6.30;3.42;;;;;;;;;;4940726;28;93564;-78
2023/01/24 10:32:31;;;;;;;6.85;3.40;;;;;;;;;;4944274;28;92476;-78
2023/01/24 10:35:02;;;;;;;6.80;3.35;;;;;;;;;;4947591;28;93070;-79
2023/01/24 10:37:33;;;;;;;6.63;3.35;;;;;;;;;;4939381;28;95372;-79
2023/01/24 10:40:00;;;;;;;6.88;3.33;;;;;;;;;;4928976;28;92527;-79
2023/01/24 10:42:28;;;;;;;6.75;3.30;;;;;;;;;;4927930;28;93034;-79
2023/01/24 10:44:58;;;;;;;7.50;3.92;;;;;;;;;;4940342;28;92917;-79
2023/01/24 10:47:43;;;;;;;6.85;3.15;;;;;;;;;;4950294;28;92569;-79
2023/01/24 10:50:11;;;;;;;6.93;3.38;;;;;;;;;;4931708;28;98812;-79
2023/01/24 10:52:38;;;;;;;6.72;3.38;;;;;;;;;;4936728;28;92679;-79
2023/01/24 10:55:22;;;;;;;7.03;3.30;;;;;;;;;;4947564;28;93934;-79
2023/01/24 10:57:49;;;;;;;8.10;3.40;;;;;;;;;;4924951;28;93304;-79
2023/01/24 11:00:16;;;;;;;6.75;3.40;;;;;;;;;;4927451;28;92911;-79
2023/01/24 11:02:46;;;;;;;7.40;3.47;;;;;;;;;;4935133;28;95021;-78
2023/01/24 11:05:13;;;;;;;6.00;2.92;;;;;;;;;;4943379;28;93157;-79
2023/01/24 11:07:40;;;;;;;;;;;;;;;;;;4952789;28;92540;-78
2023/01/24 11:10:09;;;;;;;6.45;3.22;;;;;;;;;;4961342;28;93982;-79
2023/01/24 11:12:35;;;;;;;7.15;3.40;;;;;;;;;;4928316;28;94574;-79
2023/01/24 11:15:02;;;;;;;7.60;3.45;;;;;;;;;;4947254;28;94137;-78
2023/01/24 11:17:34;;;;;;;6.60;3.25;;;;;;;;;;4947024;28;93243;-78
2023/01/24 11:20:19;;;;;;;7.25;3.03;;;;;;;;;;4945544;28;93268;-78
2023/01/24 11:22:49;;;;;;;7.78;3.13;;;;;;;;;;4947547;28;92699;-78
2023/01/24 11:25:16;;;;;;;6.78;3.17;;;;;;;;;;4946563;28;93689;-79
2023/01/24 11:27:46;;;;;;;6.75;3.35;;;;;;;;;;4944972;28;96138;-78
2023/01/24 11:30:12;;;;;;;6.45;3.15;;;;;;;;;;4941735;28;95053;-78
2023/01/24 11:32:55;;;;;;;7.10;3.17;;;;;;;;;;4946633;28;93613;-79
2023/01/24 11:35:25;;;;;;;7.43;3.55;;;;;;;;;;4930426;28;93107;-78
2023/01/24 11:38:04;;;;;;;7.60;3.50;;;;;;;;;;4941026;28;93838;-78
2023/01/24 11:40:52;;;;;;;8.27;3.38;;;;;;;;;;4942284;28;93002;-78
2023/01/24 11:43:37;;;;;;;6.72;3.28;;;;;;;;;;4943051;28;92928;-78
2023/01/24 11:46:10;;;;;;;7.63;3.20;;;;;;;;;;4941929;28;97921;-78
2023/01/24 11:48:48;;;;;;;7.30;3.53;;;;;;;;;;4945214;28;92719;-78
2023/01/24 11:51:38;;;;;;;7.50;3.25;;;;;;;;;;4947707;28;93894;-78
2023/01/24 11:54:20;;;;;;;7.50;3.55;;;;;;;;;;4943141;28;100249;-79
2023/01/24 11:56:53;;;;;;;11.38;3.38;;;;;;;;;;4949301;28;92813;-79
2023/01/24 11:59:23;;;;;;;8.75;3.30;;;;;;;;;;4946009;28;94342;-80
2023/01/24 12:02:25;;;;;;;7.50;3.42;;;;;;;;;;4948821;28;92570;-80
2023/01/24 12:05:03;;;;;;;6.65;3.17;;;;;;;;;;4945568;28;93021;-80
2023/01/24 12:07:48;;;;;;;7.43;3.30;;;;;;;;;;4946313;28;93124;-80
2023/01/24 12:10:25;;;;;;;7.05;3.10;;;;;;;;;;4947944;28;93266;-80
2023/01/24 12:13:04;;;;;;;7.05;3.50;;;;;;;;;;4943383;28;92882;-79
2023/01/24 12:15:36;;;;;;;7.03;3.40;;;;;;;;;;4949380;28;93437;-79
2023/01/24 12:18:20;;;;;;;8.57;3.28;;;;;;;;;;4948722;28;92870;-78
2023/01/24 12:20:57;;;;;;;6.47;3.25;;;;;;;;;;4943630;28;95058;-79
2023/01/24 12:23:29;;;;;;;7.53;3.38;;;;;;;;;;4929979;28;92654;-80
2023/01/24 12:26:00;;;;;;;7.50;3.28;;;;;;;;;;4929985;28;94447;-79
2023/01/24 12:28:59;;;;;;;6.72;3.05;;;;;;;;;;4928283;28;94448;-80
2023/01/24 12:31:32;;;;;;;7.00;3.47;;;;;;;;;;4903796;28;93402;-79
2023/01/24 12:34:01;;;;;;;7.07;3.33;;;;;;;;;;4938310;28;96389;-80
2023/01/24 12:36:37;;;;;;;5.63;3.13;;;;;;;;;;4930523;28;92993;-79
2023/01/24 12:39:19;;;;;;;6.38;3.20;;;;;;;;;;4928607;28;92123;-79
2023/01/24 12:41:51;;;;;;;7.03;3.13;;;;;;;;;;4922439;28;93359;-79
2023/01/24 12:44:26;;;;;;;7.32;3.15;;;;;;;;;;4929862;28;94034;-78
2023/01/24 12:47:16;;;;;;;6.07;2.92;;;;;;;;;;4926593;28;96825;-78
2023/01/24 12:49:58;;;;;;;7.82;3.05;;;;;;;;;;4921861;28;93266;-78
2023/01/24 12:52:27;;;;;;;7.03;3.22;;;;;;;;;;4929613;28;93363;-79
2023/01/24 12:54:58;;;;;;;6.00;2.95;;;;;;;;;;4937130;28;94141;-79
2023/01/24 12:57:29;;;;;;;6.63;3.00;;;;;;;;;;4938515;28;93308;-79
2023/01/24 12:59:55;;;;;;;6.13;3.10;;;;;;;;;;4939530;28;92822;-79
2023/01/24 13:02:29;;;;;;;8.45;3.20;;;;;;;;;;4936887;28;94695;-79
2023/01/24 13:04:58;;;;;;;;;;;;;;;;;;4930441;28;92632;-79
2023/01/24 13:07:27;;;;;;;7.13;3.30;;;;;;;;;;4928154;28;110524;-79
2023/01/24 13:10:13;;;;;;;7.10;3.17;;;;;;;;;;4928482;28;93186;-79
2023/01/24 13:12:40;;;;;;;7.30;3.55;;;;;;;;;;4922310;28;96311;-79
2023/01/24 13:15:17;;;;;;;6.57;3.28;;;;;;;;;;4928505;28;95609;-79
2023/01/24 13:17:50;;;;;;;6.70;3.28;;;;;;;;;;4935029;28;93239;-80
2023/01/24 13:20:26;;;;;;;5.90;3.10;;;;;;;;;;4936675;28;93532;-80
2023/01/24 13:22:52;;;;;;;6.57;3.33;;;;;;;;;;4931991;28;93750;-79
2023/01/24 13:25:27;;;;;;;6.65;3.10;;;;;;;;;;4928221;28;93736;-79
2023/01/24 13:28:07;;;;;;;6.90;3.30;;;;;;;;;;4929278;28;92941;-79
2023/01/24 13:30:40;;;;;;;6.25;3.15;;;;;;;;;;4927915;28;92236;-79
2023/01/24 13:33:12;;;;;;;6.30;3.10;;;;;;;;;;4934548;28;92696;-79
2023/01/24 13:35:45;;;;;;;6.32;3.20;;;;;;;;;;4927322;28;92837;-78
2023/01/24 13:38:18;;;;;;;6.25;3.10;;;;;;;;;;4924482;28;96085;-79
2023/01/24 13:41:05;;;;;;;6.43;3.03;;;;;;;;;;4925469;28;92911;-78
2023/01/24 13:43:46;;;;;;;7.00;3.33;;;;;;;;;;4926001;28;93658;-79
2023/01/24 13:46:13;;;;;;;6.85;3.28;;;;;;;;;;4947797;28;97783;-79
2023/01/24 13:48:40;;;;;;;6.28;3.15;;;;;;;;;;4948256;28;92925;-79
2023/01/24 13:51:21;;;;;;;6.57;3.28;;;;;;;;;;4949336;28;95575;-79
2023/01/24 13:54:00;;;;;;;6.13;3.08;;;;;;;;;;4947206;28;92609;-78
2023/01/24 13:56:27;;;;;;;7.10;3.40;;;;;;;;;;4949786;28;94066;-78
2023/01/24 13:58:54;;;;;;;5.90;2.97;;;;;;;;;;4944591;28;95143;-79
2023/01/24 14:01:21;;;;;;;;;;;;;;;;;;4943037;28;92563;-78
2023/01/24 14:03:55;;;;;;;6.32;3.33;;;;;;;;;;4947462;28;119774;-79
2023/01/24 14:06:23;;;;;;;5.93;3.00;;;;;;;;;;4946882;28;94985;-78
2023/01/24 14:09:01;;;;;;;6.47;3.40;;;;;;;;;;4946896;28;92952;-79
2023/01/24 14:11:31;;;;;;;6.65;3.40;;;;;;;;;;4947296;28;92970;-79
2023/01/24 14:14:16;;;;;;;5.40;2.92;;;;;;;;;;4946112;28;97886;-78
2023/01/24 14:16:45;;;;;;;6.68;3.30;;;;;;;;;;4929226;28;93895;-78
2023/01/24 14:19:18;;;;;;;5.68;3.28;;;;;;;;;;4921083;28;93364;-78
2023/01/24 14:21:48;;;;;;;6.88;3.40;;;;;;;;;;4928559;28;92271;-78
2023/01/24 14:24:35;;;;;;;5.82;3.30;;;;;;;;;;4927077;28;92965;-78
2023/01/24 14:27:14;;;;;;;6.07;3.03;;;;;;;;;;4924186;28;94155;-78
2023/01/24 14:29:42;;;;;;;6.63;3.33;;;;;;;;;;4926370;28;95175;-77
2023/01/24 14:32:17;;;;;;;6.32;3.35;;;;;;;;;;4926361;28;96759;-79
2023/01/24 14:34:47;;;;;;;6.47;3.38;;;;;;;;;;4927437;28;93062;-79
2023/01/24 14:37:16;;;;;;;7.07;3.03;;;;;;;;;;4943837;28;93358;-78
2023/01/24 14:39:43;;;;;;;5.97;3.22;;;;;;;;;;4940529;28;95666;-78
2023/01/24 14:42:14;;;;;;;5.65;2.90;;;;;;;;;;4944269;28;92805;-79
2023/01/24 14:44:43;;;;;;;6.53;3.30;;;;;;;;;;4935550;28;92946;-78
2023/01/24 14:47:17;;;;;;;6.68;3.30;;;;;;;;;;4928765;28;92799;-79
2023/01/24 14:49:45;;;;;;;6.68;3.25;;;;;;;;;;4927663;28;92918;-78
2023/01/24 14:52:16;;;;;;;6.40;3.30;;;;;;;;;;4927628;28;93160;-78
2023/01/24 14:54:47;;;;;;;6.07;3.00;;;;;;;;;;4926512;28;95305;-79
2023/01/24 14:57:20;;;;;;;6.13;3.08;;;;;;;;;;4927915;28;93056;-78
2023/01/24 14:59:57;;;;;;;6.20;3.42;;;;;;;;;;4947322;28;92829;-78
2023/01/24 15:02:24;;;;;;;6.47;3.30;;;;;;;;;;4931958;28;92427;-79
2023/01/24 15:04:50;;;;;;;6.53;3.22;;;;;;;;;;4920934;28;92934;-78
2023/01/24 15:07:17;;;;;;;6.07;3.25;;;;;;;;;;4908248;28;94506;-78
2023/01/24 15:09:43;;;;;;;5.68;2.95;;;;;;;;;;4922029;28;92513;-78
2023/01/24 15:12:18;;;;;;;6.65;3.15;;;;;;;;;;4913360;28;94003;-78
2023/01/24 15:14:50;;;;;;;6.88;3.22;;;;;;;;;;4925890;28;93846;-78
2023/01/24 15:17:21;;;;;;;5.95;2.97;;;;;;;;;;4925469;28;92527;-78
2023/01/24 15:19:52;;;;;;;5.95;3.20;;;;;;;;;;4927954;28;95056;-78
2023/01/24 15:22:21;;;;;;;5.97;2.97;;;;;;;;;;4927749;28;92801;-78
2023/01/24 15:24:53;;;;;;;5.20;3.10;;;;;;;;;;4926782;28;94064;-78
2023/01/24 15:27:21;;;;;;;6.07;3.20;;;;;;;;;;4916073;28;93265;-78
2023/01/24 15:29:48;;;;;;;6.60;3.25;;;;;;;;;;4924984;28;93120;-78
2023/01/24 15:32:21;;;;;;;6.78;3.15;;;;;;;;;;4927054;28;92786;-79
2023/01/24 15:34:47;;;;;;;6.47;3.22;;;;;;;;;;4926596;28;93106;-78
2023/01/24 15:37:14;;;;;;;6.05;3.03;;;;;;;;;;4928353;28;93790;-79
2023/01/24 15:39:42;;;;;;;6.75;3.05;;;;;;;;;;4926902;28;92956;-77